WETTERDATEN

GESTERN
Time Temp. Taup. r.Fe. Druck 1h Prec. 24h Prec.
00:00 11 9.4 90 1010.5 0.4040 0.0000
00:11 11.1 9.5 90 1010.6 0.4040 0.1000
00:21 11.2 9.6 90 1010.5 0.4040 0.2000
00:41 11.3 9.7 90 1010.4 0.4040 0.3000
00:51 11.4 9.8 90 1010.4 0.5050 0.5000
01:01 11.5 9.9 90 1010.3 0.6060 0.7000
01:21 11.6 10 90 1010.6 0.6060 0.8000
01:31 11.7 10.3 91 1010.4 0.6060 0.8000
01:41 11.8 10.4 91 1010.5 0.5050 0.8000
01:51 11.9 10.5 91 1010.4 0.4040 0.9000
02:02 12 10.6 91 1010.4 0.2020 0.9000
02:11 12.1 10.7 91 1010.4 0.4040 1.2000
02:21 12.1 10.7 91 1010.3 1.1110 1.9000
02:32 12.2 10.8 91 1010.5 1.4140 2.2000
02:42 12.2 10.8 91 1010.6 1.3130 2.2000
02:51 12.3 10.9 91 1010.5 1.4140 2.3000
03:02 12.3 10.9 91 1010.5 1.2120 2.4000
03:12 12.4 11 91 1010.6 0.5050 2.4000
03:22 12.4 11 91 1010.6 0.2020 2.4000
03:32 12.5 11.1 91 1010.5 0.2020 2.4000
03:42 12.6 11.2 91 1010.6 0.2020 2.5000
03:52 12.6 11.2 91 1010.5 0.1010 2.5000
04:02 12.6 11.2 91 1010.6 0.1010 2.5000
04:12 12.7 11.3 91 1010.7 0.1010 2.5000
04:23 12.7 11.3 91 1010.6 0.1010 2.5000
04:32 12.8 11.4 91 1010.7 0.1010 2.5000
04:42 12.8 11.4 91 1010.6 0.0000 2.5000
04:53 12.8 11.4 91 1010.7 0.1010 2.6000
05:03 12.9 11.5 91 1010.7 0.1010 2.6000
05:12 12.9 11.5 91 1010.7 0.1010 2.6000
05:22 13 11.6 91 1010.8 0.1010 2.6000
05:33 13 11.6 91 1010.8 0.1010 2.6000
05:43 13 11.6 91 1010.7 0.1010 2.6000
05:53 13.1 11.7 91 1010.7 0.0000 2.6000
06:03 13.1 11.7 91 1010.8 0.0000 2.6000
06:13 13.1 11.5 90 1010.8 0.0000 2.6000
06:23 13.1 11.5 90 1011 0.0000 2.6000
06:33 13.2 11.6 90 1011 0.0000 2.6000
06:43 13.2 11.6 90 1011.3 0.0000 2.6000
06:53 13.3 11.7 90 1011.3 0.0000 2.6000
07:03 13.3 11.7 90 1011.4 0.0000 2.6000
07:13 13.3 11.7 90 1011.6 0.0000 2.6000
07:24 13.3 11.7 90 1011.7 0.0000 2.6000
07:33 13.2 11.6 90 1011.7 0.0000 2.6000
07:43 13.2 11.6 90 1011.8 0.0000 2.6000
07:54 13.2 11.6 90 1011.9 0.0000 2.6000
08:04 13.3 11.7 90 1011.8 0.1010 2.7000
08:14 13.2 11.6 90 1011.8 0.2020 2.8000
08:22 13.2 11.6 90 1012 0.3030 2.9000
08:32 13.2 11.6 90 1012.1 0.3030 2.9000
08:42 13.2 11.6 90 1012.2 0.3030 2.9000
08:53 13.3 11.7 90 1012.1 0.6060 3.3000
09:02 13.3 11.7 90 1012.4 0.7070 3.4000
09:12 13.3 11.7 90 1012.4 0.7070 3.6000
09:23 13.4 11.8 90 1012.6 0.7070 3.6000
09:33 13.4 11.8 90 1012.7 0.7070 3.6000
09:43 13.4 11.8 90 1012.6 0.3030 3.6000
09:52 13.5 11.9 90 1012.7 0.2020 3.6000
10:03 13.5 11.9 90 1012.8 0.1010 3.7000
10:13 13.6 12 90 1013 0.1010 3.7000
10:23 13.7 12.3 91 1013.1 0.1010 3.7000
10:33 13.7 12.1 90 1013.2 0.1010 3.7000
10:50 13.7 12.1 90 1013.4 0.3030 3.9000
11:00 13.7 12.1 90 1013.4 0.2020 3.9000
11:10 13.8 12.2 90 1013.6 0.3030 4.0000
11:20 13.8 12.2 90 1013.7 0.4040 4.1000
11:30 13.8 12.2 90 1013.7 0.5050 4.2000
11:40 13.9 12.3 90 1013.7 0.5050 4.3000
11:50 13.9 12.3 90 1013.8 0.4040 4.3000
12:01 13.9 12.3 90 1013.9 0.5050 4.4000
12:11 13.9 12.5 91 1013.9 0.4040 4.4000
12:20 14 12.6 91 1013.9 0.4040 4.5000
12:31 14 12.6 91 1014.1 0.3030 4.5000
12:41 14 12.4 90 1014 0.2020 4.5000
12:51 14 12.4 90 1014.1 0.4040 4.7000
13:00 14 12.4 90 1014.3 0.4040 4.9000
13:11 14.1 12.5 90 1014.4 0.4040 5.0000
13:21 14.1 12.5 90 1014.5 0.5050 5.1000
13:41 14.1 12.5 90 1014.6 0.8080 5.4000
13:51 14.1 12.5 90 1014.7 0.7070 5.5000
14:01 14.1 12.5 90 1014.7 0.7070 5.6000
14:11 14.2 12.6 90 1014.8 0.5050 5.8000
14:41 14.2 12.6 90 1015 0.6060 6.1000
15:02 14.2 12.6 90 1015.2 0.3030 6.1000
15:12 14.2 12.6 90 1015.2 0.3030 6.1000
15:32 14.2 12.6 90 1015.4 0.1010 6.2000
15:42 14.2 12.6 90 1015.6 0.1010 6.3000
16:22 14.1 12.5 90 1016.1 0.4040 6.6000
16:32 14.1 12.5 90 1016.1 0.3030 6.6000
16:43 14.1 12.5 90 1016 0.1010 6.6000
16:53 14 12.4 90 1016 0.1010 6.6000
17:02 14 12.4 90 1016.1 0.0000 6.6000
17:12 14 12.4 90 1016.1 0.0000 6.6000
17:23 14 12.4 90 1016.3 0.0000 6.6000
17:33 14 12.4 90 1016.3 0.1010 6.7000
17:43 14 12.4 90 1016.4 0.2020 6.8000
18:02 14 12.4 90 1016.7 0.3030 6.9000
18:12 14 12.4 90 1016.7 0.4040 7.0000
18:32 14 12.4 90 1016.9 0.4040 7.1000
18:42 14 12.4 90 1017.1 0.3030 7.2000
18:52 13.9 12.3 90 1017.1 0.3030 7.2000
19:03 14 12.4 90 1017.2 0.3030 7.3000
19:13 13.9 12.3 90 1017.2 0.5050 7.5000
19:22 13.9 12.3 90 1017.3 0.6060 7.7000
19:33 13.9 12.3 90 1017.3 0.6060 7.8000
19:43 13.9 12.3 90 1017.2 0.6060 7.8000
19:53 13.9 12.3 90 1017.4 0.5050 7.8000
20:03 13.9 12.3 90 1017.4 0.4040 7.9000
20:13 13.9 12.3 90 1017.6 0.3030 7.9000
20:23 13.9 12.3 90 1017.6 0.3030 8.0000
20:33 13.9 12.5 91 1017.7 0.2020 8.0000
20:43 13.9 12.5 91 1017.7 0.2020 8.0000
20:53 13.9 12.5 91 1017.8 0.3030 8.1000
21:03 13.9 12.5 91 1017.8 0.3030 8.2000
21:13 13.9 12.5 91 1017.9 0.2020 8.2000
21:24 13.9 12.5 91 1018.1 0.3030 8.3000
21:34 13.9 12.5 91 1018.1 0.4040 8.4000
21:43 13.9 12.5 91 1018.3 0.4040 8.5000
21:54 13.9 12.5 91 1018.4 0.5050 8.6000
22:04 13.9 12.5 91 1018.5 0.5050 8.8000
22:34 13.9 12.5 91 1018.6 0.4040 8.9000
22:44 13.9 12.5 91 1018.8 0.6060 9.1000
22:54 13.9 12.5 91 1018.9 0.4040 9.1000
23:04 13.9 12.5 91 1018.9 0.4040 9.2000
23:14 13.9 12.5 91 1019 0.4040 9.2000
23:24 14 12.6 91 1019.3 0.3030 9.2000
23:34 14 12.6 91 1019.3 0.2020 9.2000
23:45 14 12.6 91 1019.3 0.1010
23:55 14 12.6 91 1019.4 0.1010

TAGESSTATISTIK

2020-10-30
TEMPERATUR
MITTEL
13.4
MAXIMUM
14.2
14:11
MINIMUM
11.0
00:00
LUFTDRUCK
MITTEL
1013.9
MAXIMUM
1019.4
23:55
MINIMUM
1010.3
01:01
TAUPUNKT
MITTEL
11.9
MAXIMUM
12.6
12:20
MINIMUM
9.4
00:00
FEUCHTIGKEIT
MITTEL
90
MAXIMUM
91
01:31
MINIMUM
90
00:00
NIEDERSCHLAG
REGEN STUNDE
1.4
REGEN TAG
9.2
TEMPERATUR (°C)
MINIMUM
11.0
MAXIMUM
14.2
MITTEL
13.4
LUFTDRUCK (hpa)
MINIMUM
1010.3
MAXIMUM
1019.4
MITTEL
1013.9
MESSGERÄT